Terminal Aerodrome Forecast
Issued by NWS Wilmington, OH

Current Version | Previous Version | Graphics & Text | Print | Product List | Glossary On
Versions: 1 2 3 4 5 6 7 8 9 10 11 12 13 14 15 16 17 18 19 20 21 22 23 24 25 26
000
FTUS41 KILN 011500 AAB
TAFDAY
TAF AMD
KDAY 011508Z 0115/0212 05003KT 1 1/2SM BR OVC003
     FM011600 04003KT P6SM BKN010
     FM011800 08005KT P6SM FEW025
     FM012300 11004KT P6SM SKC
     FM020900 13004KT P6SM SCT200=

USA.gov is the U.S. government's official web portal to all federal, state and local government web resources and services.